Time;durP1;ratioP1;P1;durP2;ratioP2;P2;SDS_P1;SDS_P2;PMS_P1;PMS_P2;Temp;Humidity;BMP_temperature;BMP_pressure;BME280_temperature;BME280_humidity;BME280_pressure;Samples;Min_cycle;Max_cycle;Signal;HPM_P1;HPM_P2
2023/01/04 00:01:12;;;;;;;6.60;5.90;;;;;;;8.66;79.07;96838.06;6128390;23;20199;-84
2023/01/04 00:03:39;;;;;;;5.97;5.37;;;;;;;8.62;78.81;96837.56;6127571;23;20677;-84
2023/01/04 00:06:07;;;;;;;6.23;5.43;;;;;;;8.60;78.81;96830.94;6129207;23;20187;-85
2023/01/04 00:08:34;;;;;;;5.80;5.20;;;;;;;8.48;78.48;96829.41;6128400;23;20176;-84
2023/01/04 00:11:01;;;;;;;5.60;5.10;;;;;;;8.41;79.17;96826.56;6126601;23;20221;-85
2023/01/04 00:13:29;;;;;;;5.60;5.07;;;;;;;8.39;79.10;96827.66;6127685;23;20200;-84
2023/01/04 00:15:57;;;;;;;5.80;5.30;;;;;;;8.43;79.16;96836.72;6128019;23;20204;-84
2023/01/04 00:18:23;;;;;;;5.60;5.10;;;;;;;8.40;78.55;96821.56;6127550;23;20231;-84
2023/01/04 00:20:50;;;;;;;5.93;5.10;;;;;;;8.37;78.54;96832.91;6127408;23;20203;-84
2023/01/04 00:23:16;;;;;;;5.43;4.93;;;;;;;8.28;78.82;96826.75;6127137;23;20199;-84
2023/01/04 00:25:43;;;;;;;5.80;5.30;;;;;;;8.24;79.19;96824.63;6127741;23;20182;-84
2023/01/04 00:28:09;;;;;;;5.60;5.10;;;;;;;8.22;78.67;96829.88;6127780;23;20197;-84
2023/01/04 00:30:35;;;;;;;5.57;5.07;;;;;;;8.24;78.57;96830.56;6128732;23;20562;-84
2023/01/04 00:33:04;;;;;;;5.67;5.03;;;;;;;8.24;78.16;96829.75;6127309;23;20231;-84
2023/01/04 00:35:31;;;;;;;8.10;5.50;;;;;;;8.23;77.86;96830.69;6128295;23;20226;-83
2023/01/04 00:37:57;;;;;;;5.93;5.37;;;;;;;8.19;77.84;96837.84;6127707;23;20320;-84
2023/01/04 00:40:24;;;;;;;6.40;5.80;;;;;;;8.16;77.63;96827.81;6127179;23;20681;-84
2023/01/04 00:42:50;;;;;;;5.83;5.03;;;;;;;8.11;78.08;96829.16;6129641;23;20206;-84
2023/01/04 00:45:17;;;;;;;5.13;4.63;;;;;;;8.10;77.88;96828.34;6127454;23;20176;-84
2023/01/04 00:47:43;;;;;;;5.40;4.90;;;;;;;8.09;78.75;96819.03;6125672;23;20180;-84
2023/01/04 00:50:11;;;;;;;5.00;4.50;;;;;;;8.10;78.41;96823.22;6127848;23;20202;-84
2023/01/04 00:52:37;;;;;;;4.97;4.50;;;;;;;8.09;78.17;96820.78;6127761;23;20183;-84
2023/01/04 00:55:04;;;;;;;5.20;4.70;;;;;;;8.09;78.55;96813.88;6126446;23;20688;-84
2023/01/04 00:57:30;;;;;;;5.07;4.57;;;;;;;8.11;78.61;96806.06;6126509;23;20180;-84
2023/01/04 00:59:57;;;;;;;5.27;4.77;;;;;;;8.13;78.59;96810.13;6126926;23;20207;-84
2023/01/04 01:02:23;;;;;;;4.80;4.40;;;;;;;8.17;78.88;96800.41;6127077;23;20199;-84
2023/01/04 01:04:50;;;;;;;5.27;4.70;;;;;;;8.18;78.93;96799.47;6127172;23;20211;-83
2023/01/04 01:07:17;;;;;;;4.60;4.10;;;;;;;8.19;79.88;96806.22;6127697;23;20242;-84
2023/01/04 01:09:44;;;;;;;6.07;4.37;;;;;;;8.20;78.91;96803.53;6126285;23;20200;-84
2023/01/04 01:12:10;;;;;;;4.67;4.27;;;;;;;8.21;79.12;96805.16;6127250;23;20171;-84
2023/01/04 01:14:37;;;;;;;4.93;4.47;;;;;;;8.23;79.45;96805.84;6126652;23;20757;-84
2023/01/04 01:17:03;;;;;;;4.60;4.20;;;;;;;8.19;79.51;96801.91;6127598;23;20230;-84
2023/01/04 01:19:30;;;;;;;4.73;4.33;;;;;;;8.16;79.97;96809.06;6126163;23;20187;-84
2023/01/04 01:21:58;;;;;;;5.27;4.00;;;;;;;8.15;79.49;96799.72;6126644;23;20238;-83
2023/01/04 01:24:27;;;;;;;5.10;4.60;;;;;;;8.14;79.57;96804.06;6126358;23;20179;-84
2023/01/04 01:26:53;;;;;;;5.17;4.13;;;;;;;8.18;79.59;96812.31;6126634;23;20175;-84
2023/01/04 01:29:20;;;;;;;4.90;4.40;;;;;;;8.15;79.38;96812.56;6126536;23;20231;-84
2023/01/04 01:31:46;;;;;;;5.47;4.97;;;;;;;8.10;78.96;96810.38;6126227;23;20183;-84
2023/01/04 01:34:13;;;;;;;5.60;5.00;;;;;;;8.06;78.56;96816.75;6126169;23;20180;-84
2023/01/04 01:36:39;;;;;;;5.37;4.87;;;;;;;8.01;78.41;96812.94;6126368;23;20183;-84
2023/01/04 01:39:06;;;;;;;6.10;5.20;;;;;;;7.91;79.51;96818.00;6126509;23;20187;-84
2023/01/04 01:41:35;;;;;;;6.60;5.57;;;;;;;7.84;79.97;96829.75;6126515;23;20207;-84
2023/01/04 01:44:04;;;;;;;6.00;5.40;;;;;;;7.84;80.58;96829.75;6125386;23;20822;-84
2023/01/04 01:46:36;;;;;;;5.83;5.33;;;;;;;7.84;80.41;96829.75;6124891;23;20188;-84
2023/01/04 01:49:05;;;;;;;6.80;6.20;;;;;;;7.83;80.09;96828.13;6125554;23;20164;-84
2023/01/04 01:51:33;;;;;;;6.80;6.10;;;;;;;7.80;79.90;96833.50;6126805;23;20586;-84
2023/01/04 01:54:04;;;;;;;6.80;6.10;;;;;;;7.79;80.20;96831.88;6125594;23;20234;-84
2023/01/04 01:56:33;;;;;;;6.47;5.87;;;;;;;7.80;80.12;96825.81;6126309;23;20610;-84
2023/01/04 01:59:03;;;;;;;6.53;5.93;;;;;;;7.77;79.50;96837.13;6125275;23;20180;-84
2023/01/04 02:01:31;;;;;;;6.27;5.67;;;;;;;7.76;79.38;96827.81;6125919;23;20199;-84
2023/01/04 02:03:57;;;;;;;6.57;5.97;;;;;;;7.76;79.68;96832.94;6125276;23;20204;-84
2023/01/04 02:06:30;;;;;;;6.30;5.70;;;;;;;7.74;79.65;96828.88;6125912;23;20179;-84
2023/01/04 02:08:57;;;;;;;7.87;7.07;;;;;;;7.63;79.79;96827.22;6124483;23;20168;-84
2023/01/04 02:11:23;;;;;;;7.90;7.10;;;;;;;7.60;80.24;96819.78;6125314;23;20199;-84
2023/01/04 02:16:48;;;;;;;8.20;7.40;;;;;;;7.58;79.98;96827.59;6125064;23;20167;-84
2023/01/04 02:19:36;;;;;;;8.67;7.23;;;;;;;7.53;79.61;96816.91;6123676;23;20517;-84
2023/01/04 02:22:33;;;;;;;7.47;6.50;;;;;;;7.52;80.04;96824.72;6125424;23;20250;-84
2023/01/04 02:25:18;;;;;;;8.33;7.43;;;;;;;7.50;79.71;96822.31;6124522;23;20160;-83
2023/01/04 02:27:52;;;;;;;8.50;7.17;;;;;;;7.52;80.54;96809.34;6124478;23;20219;-83
2023/01/04 02:31:05;;;;;;;7.37;6.67;;;;;;;7.53;80.22;96810.97;6124851;23;20199;-84
2023/01/04 02:33:44;;;;;;;7.90;7.00;;;;;;;7.52;80.52;96799.09;6038609;23;20207;-84
2023/01/04 02:36:15;;;;;;;7.63;6.83;;;;;;;7.50;81.04;96796.69;6125058;23;20191;-84
2023/01/04 02:39:02;;;;;;;7.93;7.13;;;;;;;7.54;81.17;96800.59;6124306;23;20168;-84
2023/01/04 02:41:33;;;;;;;7.23;6.53;;;;;;;7.59;81.30;96807.91;6119829;23;20214;-84
2023/01/04 02:46:58;;;;;;;7.47;6.47;;;;;;;7.54;81.90;96820.28;6124486;23;20219;-84
2023/01/04 02:52:10;;;;;;;6.20;5.60;;;;;;;7.48;82.59;96806.25;6124994;23;20163;-84
2023/01/04 02:54:38;;;;;;;6.93;6.23;;;;;;;7.55;82.32;96804.78;6123634;23;20175;-84
2023/01/04 02:57:21;;;;;;;6.50;5.90;;;;;;;7.60;82.06;96796.72;6124571;23;20176;-84
2023/01/04 03:00:03;;;;;;;6.20;5.60;;;;;;;7.57;82.35;96787.53;6125387;23;20196;-84
2023/01/04 03:08:30;;;;;;;6.97;6.27;;;;;;;7.48;86.12;96774.69;6123840;23;20188;-84
2023/01/04 03:11:01;;;;;;;6.47;5.80;;;;;;;7.48;87.17;96772.13;6124395;23;20202;-84
2023/01/04 03:13:32;;;;;;;7.00;6.30;;;;;;;7.49;87.23;96771.19;6124167;23;20172;-84
2023/01/04 03:16:04;;;;;;;6.40;5.80;;;;;;;7.48;87.72;96772.13;6124179;23;20610;-84
2023/01/04 03:18:35;;;;;;;6.33;5.73;;;;;;;7.42;88.16;96765.75;6123935;23;20186;-84
2023/01/04 03:21:04;;;;;;;7.00;6.30;;;;;;;7.46;87.65;96782.50;6124040;23;20204;-84
2023/01/04 03:37:42;;;;;;;6.17;5.57;;;;;;;7.63;85.74;96773.41;6125779;23;20247;-84
2023/01/04 03:48:56;;;;;;;6.60;5.90;;;;;;;7.68;85.44;96773.81;6125663;23;20163;-84
2023/01/04 03:51:27;;;;;;;7.17;6.47;;;;;;;7.66;85.20;96757.75;6126716;23;20227;-84
2023/01/04 03:53:59;;;;;;;7.13;6.43;;;;;;;7.59;85.91;96746.41;6125713;23;20179;-84
2023/01/04 03:56:28;;;;;;;6.83;6.17;;;;;;;7.55;85.94;96740.72;6125856;23;20175;-84
2023/01/04 03:58:55;;;;;;;6.77;6.10;;;;;;;7.58;85.16;96740.44;6125202;23;20179;-84
2023/01/04 04:01:24;;;;;;;6.97;6.20;;;;;;;7.55;85.48;96733.03;6125912;23;20200;-84
2023/01/04 04:09:20;;;;;;;5.63;5.10;;;;;;;7.62;84.61;96735.88;6125130;23;20665;-84
2023/01/04 04:11:46;;;;;;;6.23;5.63;;;;;;;7.61;84.32;96734.25;6125439;23;20804;-84
2023/01/04 04:14:13;;;;;;;6.37;5.77;;;;;;;7.65;84.50;96732.25;6126433;23;20478;-84
2023/01/04 04:16:39;;;;;;;6.40;5.80;;;;;;;7.66;83.96;96726.19;6126214;23;20179;-84
2023/01/04 04:19:06;;;;;;;6.03;5.47;;;;;;;7.59;84.37;96729.25;6124967;23;20190;-84
2023/01/04 04:21:32;;;;;;;5.77;5.27;;;;;;;7.59;84.36;96731.81;6125879;23;20240;-84
2023/01/04 04:23:59;;;;;;;5.50;4.97;;;;;;;7.58;84.31;96727.66;6125421;23;20195;-84
2023/01/04 04:26:26;;;;;;;5.73;5.23;;;;;;;7.60;84.50;96733.44;6125941;23;20182;-83
2023/01/04 04:28:53;;;;;;;6.00;5.40;;;;;;;7.62;83.69;96730.75;6125429;23;20185;-84
2023/01/04 04:31:19;;;;;;;5.53;5.03;;;;;;;7.55;83.66;96724.53;6125890;23;20195;-84
2023/01/04 04:33:46;;;;;;;5.53;5.03;;;;;;;7.52;83.79;96725.59;6125093;23;20175;-84
2023/01/04 04:36:12;;;;;;;6.10;5.50;;;;;;;7.51;83.60;96710.34;6125688;23;20618;-84
2023/01/04 04:38:39;;;;;;;5.20;4.73;;;;;;;7.46;83.67;96705.63;6125832;23;20182;-84
2023/01/04 04:43:55;;;;;;;4.87;4.37;;;;;;;7.36;83.81;96698.81;6124692;23;20183;-84
2023/01/04 04:46:21;;;;;;;3.93;3.57;;;;;;;7.30;84.05;96712.97;6122729;23;20179;-84
2023/01/04 04:48:48;;;;;;;4.10;3.70;;;;;;;7.19;84.09;96702.81;6124846;23;20171;-84
2023/01/04 04:51:14;;;;;;;3.70;3.40;;;;;;;7.20;83.93;96697.56;6125017;23;20204;-84
2023/01/04 04:53:41;;;;;;;3.73;3.27;;;;;;;7.25;84.26;96692.88;6124837;23;20175;-84
2023/01/04 04:56:08;;;;;;;3.50;3.20;;;;;;;7.20;83.70;96689.06;6125897;23;20184;-83
2023/01/04 04:58:35;;;;;;;3.40;3.10;;;;;;;7.22;83.96;96687.19;6126364;23;20176;-84
2023/01/04 05:01:03;;;;;;;3.20;2.90;;;;;;;7.22;83.83;96687.19;6124735;23;20254;-84
2023/01/04 05:03:30;;;;;;;3.40;3.10;;;;;;;7.18;83.52;96694.31;6125719;23;20199;-84
2023/01/04 05:05:56;;;;;;;3.50;3.20;;;;;;;7.19;83.57;96698.50;6125573;23;20243;-84
2023/01/04 05:08:25;;;;;;;3.23;2.93;;;;;;;7.24;83.34;96700.69;6125467;23;20179;-84
2023/01/04 05:10:52;;;;;;;3.40;3.10;;;;;;;7.23;83.24;96693.94;6125284;23;20214;-84
2023/01/04 05:13:17;;;;;;;3.03;2.83;;;;;;;7.26;82.82;96688.56;6124959;23;20176;-84
2023/01/04 05:15:45;;;;;;;3.40;3.10;;;;;;;7.23;82.92;96687.06;6124062;23;20183;-84
2023/01/04 05:18:15;;;;;;;2.90;2.60;;;;;;;7.19;83.28;96700.25;6124973;23;20176;-83
2023/01/04 05:20:41;;;;;;;3.30;2.87;;;;;;;7.15;83.16;96694.56;6124465;23;20742;-84
2023/01/04 05:23:09;;;;;;;2.70;2.50;;;;;;;7.17;82.69;96694.44;6125039;23;20687;-84
2023/01/04 05:25:36;;;;;;;2.80;2.60;;;;;;;7.15;82.72;96696.31;6124116;23;20182;-83
2023/01/04 05:28:03;;;;;;;2.80;2.60;;;;;;;7.18;82.29;96701.19;6123358;23;20191;-84
2023/01/04 05:33:15;;;;;;;2.87;2.53;;;;;;;7.26;81.75;96697.06;6122710;23;20653;-84
2023/01/04 05:35:41;;;;;;;3.00;2.57;;;;;;;7.30;81.84;96696.81;6123932;23;20550;-84
2023/01/04 05:38:07;;;;;;;2.83;2.20;;;;;;;7.26;81.58;96693.69;6124129;23;20700;-84
2023/01/04 05:40:34;;;;;;;2.60;2.40;;;;;;;7.26;81.28;96697.06;6124548;23;20204;-84
2023/01/04 05:43:01;;;;;;;2.63;2.43;;;;;;;7.28;81.24;96704.59;6124210;23;20195;-84
2023/01/04 05:45:28;;;;;;;2.77;2.53;;;;;;;7.31;81.35;96706.09;6124912;23;20669;-84
2023/01/04 05:47:54;;;;;;;2.80;2.60;;;;;;;7.26;81.21;96707.31;6122808;23;20172;-84
2023/01/04 05:50:24;;;;;;;2.80;2.50;;;;;;;7.25;81.29;96705.69;6119743;23;20243;-84
2023/01/04 05:52:51;;;;;;;2.50;2.30;;;;;;;7.25;81.19;96707.44;6123141;23;20649;-84
2023/01/04 05:55:18;;;;;;;2.80;2.60;;;;;;;7.27;80.63;96706.34;6124367;23;20183;-84
2023/01/04 05:57:45;;;;;;;2.80;2.60;;;;;;;7.22;80.49;96702.56;6123370;23;20184;-84
2023/01/04 06:00:12;;;;;;;2.70;2.27;;;;;;;7.17;80.71;96707.25;6124212;23;20846;-84
2023/01/04 06:02:39;;;;;;;2.70;2.50;;;;;;;7.19;80.58;96713.84;6124707;23;20176;-84
2023/01/04 06:05:06;;;;;;;3.20;2.77;;;;;;;7.19;80.39;96710.50;6124339;23;20251;-84
2023/01/04 06:07:34;;;;;;;2.90;2.70;;;;;;;7.22;80.21;96713.59;6123725;23;20549;-84
2023/01/04 06:10:00;;;;;;;2.93;2.67;;;;;;;7.22;80.10;96717.91;6124787;23;20195;-84
2023/01/04 06:12:27;;;;;;;3.40;2.90;;;;;;;7.21;80.14;96719.66;6123635;23;20179;-83
2023/01/04 06:14:53;;;;;;;3.13;2.70;;;;;;;7.19;80.01;96718.16;6124139;23;20175;-84
2023/01/04 06:17:20;;;;;;;2.90;2.70;;;;;;;7.20;80.28;96722.34;6123575;23;20243;-84
2023/01/04 06:19:46;;;;;;;2.60;2.40;;;;;;;7.22;80.27;96720.47;6124578;23;20190;-84
2023/01/04 06:22:13;;;;;;;3.07;2.77;;;;;;;7.25;80.59;96715.91;6126431;23;20569;-84
2023/01/04 06:24:41;;;;;;;2.87;2.67;;;;;;;7.22;81.19;96716.16;6127311;23;20197;-83
2023/01/04 06:27:07;;;;;;;2.80;2.60;;;;;;;7.24;81.25;96719.41;6126177;23;20567;-84
2023/01/04 06:29:34;;;;;;;2.60;2.40;;;;;;;7.24;81.98;96716.84;6126272;23;20210;-84
2023/01/04 06:32:00;;;;;;;2.83;2.60;;;;;;;7.30;81.77;96718.09;6125311;23;20179;-84
2023/01/04 06:34:27;;;;;;;2.70;2.50;;;;;;;7.29;81.78;96711.34;6124914;23;20175;-84
2023/01/04 06:36:53;;;;;;;2.97;2.67;;;;;;;7.33;83.29;96707.56;6125492;23;20171;-84
2023/01/04 06:39:21;;;;;;;5.03;3.40;;;;;;;7.38;84.87;96710.56;6125563;23;20246;-84
2023/01/04 06:41:49;;;;;;;2.60;2.40;;;;;;;7.43;83.13;96707.63;6124967;23;20258;-84
2023/01/04 06:44:16;;;;;;;11.30;9.80;;;;;;;7.38;83.77;96697.75;6125084;23;20200;-84
2023/01/04 06:46:42;;;;;;;31.27;24.53;;;;;;;7.44;82.88;96688.75;6123833;23;20183;-84
2023/01/04 06:49:08;;;;;;;8.63;5.13;;;;;;;7.46;82.92;96690.25;6125729;23;20183;-83
2023/01/04 06:51:35;;;;;;;2.77;2.57;;;;;;;7.40;83.19;96690.75;6124343;23;20192;-84
2023/01/04 06:54:01;;;;;;;2.40;2.20;;;;;;;7.38;83.46;96684.94;6123907;23;20232;-83
2023/01/04 06:56:29;;;;;;;2.57;2.37;;;;;;;7.42;83.28;96685.50;6123390;23;20202;-83
2023/01/04 06:58:57;;;;;;;2.70;2.50;;;;;;;7.48;82.94;96679.88;6123548;23;20206;-84
2023/01/04 07:01:24;;;;;;;2.50;2.30;;;;;;;7.47;83.57;96675.69;6123079;23;20200;-83
2023/01/04 07:03:50;;;;;;;1.93;1.83;;;;;;;7.47;84.45;96679.06;6121895;23;20199;-82
2023/01/04 07:06:17;;;;;;;2.00;1.90;;;;;;;7.49;83.95;96672.06;6124028;23;20176;-84
2023/01/04 07:08:43;;;;;;;2.23;2.03;;;;;;;7.53;83.36;96672.59;6126380;23;20175;-84
2023/01/04 07:11:10;;;;;;;3.00;2.30;;;;;;;7.49;83.22;96673.81;6127699;23;20196;-84
2023/01/04 07:13:36;;;;;;;2.30;2.10;;;;;;;7.45;83.56;96675.00;6127754;23;20281;-84
2023/01/04 07:16:04;;;;;;;2.80;2.40;;;;;;;7.44;83.46;96670.81;6126675;23;20179;-84
2023/01/04 07:18:31;;;;;;;2.67;2.47;;;;;;;7.42;83.87;96682.94;6126175;23;20199;-84
2023/01/04 07:20:57;;;;;;;2.20;2.10;;;;;;;7.29;84.81;96678.06;6125574;23;20200;-84
2023/01/04 07:23:24;;;;;;;2.40;2.20;;;;;;;7.34;84.35;96677.66;6126032;23;20160;-84
2023/01/04 07:25:50;;;;;;;2.47;2.27;;;;;;;7.38;83.69;96677.25;6125025;23;20175;-84
2023/01/04 07:29:13;;;;;;;2.40;2.20;;;;;;;7.41;83.96;96677.00;6125321;23;20211;-83
2023/01/04 07:31:06;;;;;;;3.83;2.43;;;;;;;7.38;84.12;96673.88;6124975;23;20259;-84
2023/01/04 07:33:33;;;;;;;2.30;2.10;;;;;;;7.32;84.12;96671.84;6124515;23;20172;-84
2023/01/04 07:36:04;;;;;;;2.30;2.10;;;;;;;7.31;84.43;96681.31;6125864;23;20242;-84
2023/01/04 07:38:30;;;;;;;2.60;2.37;;;;;;;7.27;84.60;96691.00;6125354;23;20164;-84
2023/01/04 07:40:57;;;;;;;2.67;2.00;;;;;;;7.31;84.31;96680.50;6125046;23;20199;-84
2023/01/04 07:43:23;;;;;;;2.40;2.20;;;;;;;7.29;84.89;96683.19;6126780;23;20180;-83
2023/01/04 07:45:50;;;;;;;2.80;2.10;;;;;;;7.38;85.05;96679.00;6129502;23;20179;-83
2023/01/04 07:48:17;;;;;;;2.80;2.50;;;;;;;7.38;85.56;96672.13;6129560;23;20262;-83
2023/01/04 07:50:44;;;;;;;2.40;2.20;;;;;;;7.45;85.06;96669.88;6128534;23;20200;-84
2023/01/04 07:53:11;;;;;;;2.60;2.40;;;;;;;7.49;84.36;96663.56;6124634;23;20688;-84
2023/01/04 07:55:38;;;;;;;2.47;2.27;;;;;;;7.56;84.35;96654.38;6125460;23;20203;-84
2023/01/04 07:58:04;;;;;;;2.30;2.10;;;;;;;7.59;83.42;96651.56;6125871;23;20168;-84
2023/01/04 08:00:31;;;;;;;2.30;2.10;;;;;;;7.76;83.03;96655.25;6125909;23;20223;-84
2023/01/04 08:02:57;;;;;;;2.40;2.20;;;;;;;7.90;82.21;96647.16;6124756;23;20203;-84
2023/01/04 08:05:25;;;;;;;3.10;2.50;;;;;;;8.00;81.81;96644.59;6124258;23;20579;-84
2023/01/04 08:07:51;;;;;;;2.37;2.17;;;;;;;8.15;81.61;96640.69;6124926;23;20179;-84
2023/01/04 08:10:18;;;;;;;4.10;3.70;;;;;;;8.21;81.03;96642.72;6124150;23;20266;-83
2023/01/04 08:12:51;;;;;;;2.40;2.20;;;;;;;8.30;80.97;96645.28;6124855;23;20160;-84
2023/01/04 08:15:18;;;;;;;2.30;2.10;;;;;;;8.43;80.05;96649.38;6124998;23;20160;-84
2023/01/04 08:17:44;;;;;;;1.87;1.77;;;;;;;8.52;79.98;96640.81;6125287;23;20240;-85
2023/01/04 08:20:11;;;;;;;2.23;2.03;;;;;;;8.68;79.34;96651.31;6126033;23;20261;-84
2023/01/04 08:22:42;;;;;;;1.90;1.80;;;;;;;8.74;78.55;96644.84;6126756;23;20180;-84
2023/01/04 08:25:09;;;;;;;1.87;1.77;;;;;;;8.70;78.50;96643.50;6130579;23;20195;-83
2023/01/04 08:27:36;;;;;;;1.90;1.80;;;;;;;8.86;77.67;96648.84;6131078;23;20163;-84
2023/01/04 08:30:06;;;;;;;1.70;1.60;;;;;;;8.92;77.21;96646.53;6125734;23;20195;-84
2023/01/04 08:32:32;;;;;;;2.10;1.90;;;;;;;9.06;77.16;96645.28;6126106;23;20175;-84
2023/01/04 08:34:59;;;;;;;1.93;1.77;;;;;;;9.13;76.28;96648.91;6125468;23;20182;-84
2023/01/04 08:37:25;;;;;;;2.23;2.00;;;;;;;9.38;75.86;96639.75;6126239;23;20182;-84
2023/01/04 08:39:53;;;;;;;2.40;1.80;;;;;;;9.36;75.56;96641.66;6125048;23;20214;-84
2023/01/04 08:42:19;;;;;;;1.83;1.60;;;;;;;9.59;75.57;96634.34;6124399;23;20470;-85
2023/01/04 08:44:47;;;;;;;1.67;1.57;;;;;;;9.82;74.27;96639.88;6123816;23;20199;-85
2023/01/04 08:47:18;;;;;;;1.83;1.73;;;;;;;10.02;73.10;96637.03;6121936;23;20164;-85
2023/01/04 08:49:45;;;;;;;1.87;1.67;;;;;;;10.14;72.48;96635.06;6123850;23;20164;-84
2023/01/04 08:52:14;;;;;;;1.70;1.57;;;;;;;10.42;71.84;96638.34;6124621;23;20490;-84
2023/01/04 08:54:41;;;;;;;1.73;1.63;;;;;;;10.36;70.62;96631.25;6126712;23;20577;-84
2023/01/04 08:57:08;;;;;;;1.77;1.63;;;;;;;10.20;71.47;96636.28;6125839;23;20179;-84
2023/01/04 08:59:35;;;;;;;1.57;1.47;;;;;;;9.86;72.67;96631.72;6124326;23;20171;-84
2023/01/04 09:02:01;;;;;;;3.20;1.70;;;;;;;9.75;73.24;96628.56;6125389;23;20183;-85
2023/01/04 09:04:28;;;;;;;1.60;1.50;;;;;;;9.64;73.47;96627.81;6123422;23;20250;-84
2023/01/04 09:06:54;;;;;;;1.60;1.50;;;;;;;9.61;73.94;96627.31;6121157;23;20263;-85
2023/01/04 09:09:21;;;;;;;2.17;1.70;;;;;;;9.69;74.15;96627.38;6122645;23;20677;-85
2023/01/04 09:11:47;;;;;;;1.70;1.60;;;;;;;9.92;73.44;96622.63;6122836;23;20250;-84
2023/01/04 09:14:15;;;;;;;1.53;1.43;;;;;;;9.96;72.93;96616.25;6123435;23;20156;-84
2023/01/04 09:16:41;;;;;;;1.50;1.40;;;;;;;10.02;72.35;96611.28;6122371;23;20180;-85
2023/01/04 09:19:08;;;;;;;3.83;1.70;;;;;;;10.09;71.80;96610.72;6122108;23;20198;-84
2023/01/04 09:21:35;;;;;;;1.70;1.60;;;;;;;10.26;70.92;96604.78;6125278;23;20535;-85
2023/01/04 09:24:02;;;;;;;1.70;1.57;;;;;;;10.22;70.38;96617.13;6124681;23;20910;-85
2023/01/04 09:26:28;;;;;;;2.13;1.63;;;;;;;10.48;69.98;96611.22;6123072;23;20685;-85
2023/01/04 09:28:56;;;;;;;3.40;2.17;;;;;;;10.57;68.76;96616.28;6123280;23;20222;-85
2023/01/04 09:31:25;;;;;;;2.07;1.87;;;;;;;10.76;68.29;96611.88;6123026;23;20211;-84
2023/01/04 09:33:52;;;;;;;1.63;1.53;;;;;;;10.89;68.17;96617.44;6124593;23;20262;-85
2023/01/04 09:36:18;;;;;;;1.70;1.57;;;;;;;10.96;67.41;96619.25;6123107;23;20665;-85
2023/01/04 09:38:49;;;;;;;1.63;1.53;;;;;;;11.04;67.42;96613.31;6122791;23;20240;-84
2023/01/04 09:41:24;;;;;;;1.60;1.50;;;;;;;10.96;67.28;96615.88;6124713;23;20195;-85
2023/01/04 09:43:52;;;;;;;1.60;1.50;;;;;;;10.85;67.93;96610.97;6122850;23;20772;-84
2023/01/04 09:46:28;;;;;;;1.60;1.50;;;;;;;10.53;68.59;96614.97;6122972;23;20160;-84
2023/01/04 09:49:12;;;;;;;1.60;1.50;;;;;;;10.36;69.00;96614.03;6123864;23;20506;-84
2023/01/04 09:51:42;;;;;;;2.57;1.67;;;;;;;10.13;70.54;96599.97;6123487;23;20206;-84
2023/01/04 09:54:15;;;;;;;1.50;1.40;;;;;;;10.22;71.23;96606.81;6123841;23;20170;-84
2023/01/04 09:56:48;;;;;;;1.90;1.80;;;;;;;10.37;71.06;96610.50;6122439;23;20264;-84
2023/01/04 09:59:17;;;;;;;1.60;1.50;;;;;;;10.33;71.33;96610.94;6122187;23;20167;-84
2023/01/04 10:01:48;;;;;;;1.50;1.40;;;;;;;10.32;71.40;96605.00;6122038;23;20199;-84
2023/01/04 10:04:23;;;;;;;1.50;1.40;;;;;;;10.32;71.64;96601.59;6123033;23;20214;-85
2023/01/04 10:06:51;;;;;;;1.60;1.50;;;;;;;10.13;72.32;96599.97;6122040;23;20156;-84
2023/01/04 10:09:18;;;;;;;3.60;2.67;;;;;;;10.19;72.54;96589.13;6121733;23;20175;-84
2023/01/04 10:12:16;;;;;;;1.60;1.50;;;;;;;10.09;72.60;96596.09;6122042;23;20191;-84
2023/01/04 10:15:03;;;;;;;3.60;1.40;;;;;;;10.34;72.78;96589.41;6099211;23;20176;-84
2023/01/04 10:17:46;;;;;;;1.70;1.60;;;;;;;10.48;71.71;96588.84;6122599;23;20167;-84
2023/01/04 10:20:41;;;;;;;1.40;1.30;;;;;;;10.40;70.31;96586.19;6123803;23;20214;-84
2023/01/04 10:23:15;;;;;;;2.27;1.40;;;;;;;10.58;69.78;96576.66;6125026;23;20176;-84
2023/01/04 10:25:52;;;;;;;1.50;1.40;;;;;;;10.68;68.79;96574.00;6123788;23;20190;-84
2023/01/04 10:28:33;;;;;;;2.10;1.23;;;;;;;10.72;67.08;96570.97;6123372;23;20163;-84
2023/01/04 10:31:05;;;;;;;1.30;1.20;;;;;;;10.70;67.21;96565.16;6124965;23;20199;-84
2023/01/04 10:33:42;;;;;;;1.23;1.10;;;;;;;10.60;66.78;96553.34;6124688;23;20188;-85
2023/01/04 10:36:22;;;;;;;5.73;1.30;;;;;;;10.66;66.35;96548.41;6123224;23;20216;-85
2023/01/04 10:38:54;;;;;;;1.30;1.20;;;;;;;10.76;66.17;96550.88;6125749;23;20191;-84
2023/01/04 10:41:25;;;;;;;1.20;1.10;;;;;;;10.61;66.30;96548.03;6123624;23;20199;-84
2023/01/04 10:44:03;;;;;;;1.47;1.27;;;;;;;10.57;66.95;96545.94;6124268;23;20242;-84
2023/01/04 10:46:34;;;;;;;2.20;1.20;;;;;;;10.52;67.05;96538.66;6122895;23;20192;-85
2023/01/04 10:49:07;;;;;;;1.00;1.00;;;;;;;10.36;67.62;96530.84;6123843;23;20215;-84
2023/01/04 10:51:41;;;;;;;2.10;1.20;;;;;;;10.12;68.43;96528.06;6123308;23;20246;-85
2023/01/04 10:54:16;;;;;;;1.30;1.20;;;;;;;10.16;68.99;96530.22;6124905;23;20170;-84
2023/01/04 10:56:51;;;;;;;1.40;1.20;;;;;;;10.15;68.65;96520.88;6123509;23;20156;-84
2023/01/04 10:59:21;;;;;;;1.23;1.13;;;;;;;10.09;68.63;96515.50;6123155;23;20163;-84
2023/01/04 11:01:53;;;;;;;1.47;1.20;;;;;;;10.00;69.07;96510.31;6122710;23;20688;-84
2023/01/04 11:04:26;;;;;;;1.30;1.20;;;;;;;9.99;69.54;96513.03;6124592;23;20505;-84
2023/01/04 11:06:56;;;;;;;1.20;1.10;;;;;;;10.05;69.36;96505.50;6122841;23;20160;-84
2023/01/04 11:09:26;;;;;;;3.13;1.93;;;;;;;10.07;68.87;96502.78;6124040;23;20478;-84
2023/01/04 11:11:56;;;;;;;1.40;1.23;;;;;;;10.09;68.15;96507.78;6122504;23;20218;-84
2023/01/04 11:14:24;;;;;;;1.00;0.93;;;;;;;10.09;68.10;96492.34;6123358;23;20164;-84
2023/01/04 11:16:55;;;;;;;1.77;1.10;;;;;;;10.16;67.46;96496.75;6122869;23;20494;-84
2023/01/04 11:19:23;;;;;;;1.53;1.00;;;;;;;10.08;66.91;96496.69;6122361;23;20187;-84
2023/01/04 11:21:55;;;;;;;1.30;1.03;;;;;;;10.15;66.77;96496.91;6122020;23;20577;-84
2023/01/04 11:24:23;;;;;;;1.33;1.23;;;;;;;10.17;66.14;96487.28;6123975;23;20763;-84
2023/01/04 11:26:51;;;;;;;0.80;0.80;;;;;;;10.11;65.33;96482.72;6125187;23;20186;-85
2023/01/04 11:29:28;;;;;;;1.40;1.20;;;;;;;10.16;65.39;96477.94;6126886;23;20495;-85
2023/01/04 11:32:00;;;;;;;1.10;1.00;;;;;;;10.16;64.35;96475.34;6122910;23;20547;-84
2023/01/04 11:34:46;;;;;;;2.40;1.00;;;;;;;10.20;64.64;96469.75;6126852;23;20736;-84
2023/01/04 11:37:28;;;;;;;1.40;0.87;;;;;;;10.16;63.65;96480.50;6125066;23;20236;-84
2023/01/04 11:40:18;;;;;;;1.10;1.00;;;;;;;10.17;63.74;96475.22;6126074;23;20160;-84
2023/01/04 11:42:45;;;;;;;2.50;1.27;;;;;;;10.28;64.35;96464.69;6127411;23;20246;-84
2023/01/04 11:45:18;;;;;;;2.30;1.03;;;;;;;10.26;63.34;96463.22;6126566;23;20203;-85
2023/01/04 11:47:50;;;;;;;2.20;1.00;;;;;;;10.24;62.53;96460.78;6122643;23;20164;-85
2023/01/04 11:53:30;;;;;;;1.00;0.90;;;;;;;10.33;62.50;96453.94;5067471;27;2457616;-86
2023/01/04 11:56:15;;;;;;;1.00;0.90;;;;;;;10.38;62.03;96444.78;5123736;28;20682;-85
2023/01/04 11:58:43;;;;;;;0.80;0.80;;;;;;;10.33;62.04;96443.63;5118144;28;20198;-86
2023/01/04 12:01:20;;;;;;;1.10;1.00;;;;;;;10.34;61.74;96448.63;5115805;28;20724;-86
2023/01/04 12:03:47;;;;;;;0.80;0.80;;;;;;;10.41;61.98;96437.69;5105518;28;20639;-86
2023/01/04 12:06:18;;;;;;;0.80;0.80;;;;;;;10.44;61.26;96440.78;5089779;28;20730;-85
2023/01/04 12:08:46;;;;;;;2.17;1.17;;;;;;;10.51;61.05;96441.78;5091653;28;20211;-86
2023/01/04 12:11:22;;;;;;;1.83;0.90;;;;;;;10.63;60.74;96442.28;5092315;28;20219;-86
2023/01/04 12:13:48;;;;;;;0.93;0.93;;;;;;;10.66;60.24;96424.78;5108913;28;20203;-86
2023/01/04 12:16:25;;;;;;;0.90;0.90;;;;;;;10.71;60.07;96426.88;5097574;28;20196;-87
2023/01/04 12:18:52;;;;;;;2.10;0.80;;;;;;;10.71;59.63;96414.81;5091158;28;20594;-86
2023/01/04 12:21:21;;;;;;;2.00;0.80;;;;;;;10.73;58.19;96407.75;5099833;28;20216;-86
2023/01/04 12:23:50;;;;;;;1.30;0.90;;;;;;;10.77;58.49;96407.44;5093327;28;20741;-84
2023/01/04 12:26:18;;;;;;;2.40;0.90;;;;;;;10.79;57.79;96410.63;5095066;28;20268;-81
2023/01/04 12:28:47;;;;;;;1.20;0.87;;;;;;;10.78;56.90;96401.28;5091802;28;20207;-81
2023/01/04 12:31:31;;;;;;;1.47;0.93;;;;;;;10.76;56.67;96401.47;5101690;28;20723;-81
2023/01/04 12:33:59;;;;;;;0.80;0.70;;;;;;;10.77;56.63;96400.50;5109318;28;20282;-81
2023/01/04 12:36:55;;;;;;;4.20;0.90;;;;;;;10.74;55.79;96395.66;5104355;28;20226;-82
2023/01/04 12:39:46;;;;;;;0.60;0.60;;;;;;;10.77;55.36;96405.66;5103250;28;20660;-82
2023/01/04 12:42:27;;;;;;;0.97;0.80;;;;;;;10.79;55.69;96384.88;5071736;28;20216;-81